Tole Mour — WDA5625 — position and weather

sailwx.info

Track history (hours):
 
Tides and Currents Weather Stations Pressure Air Temp Water Temp Dewpoint Dewpoint Depression Visibility Wind Speed Wind Dir Waves Ship Positions

Tole Mour (United States)

The largest working tall ship on the west coast of North America. Former callsign WUV7222.

Ship's website: http://www.tolemour.org/

Owner: Guided Discoveries/SSV Tole Mour, Claremont, CA. More information available from US FCC via Universal Licensing System and Coast Guard Vessel Documentation Center.

Last reported at 2014-Oct-30 22:32 UTC. Time now 2014-Nov-01 02:04 UTC.
Position N 33°27' W 118°30'.

Type: Ship. MMSI: 366822140.

Date/timePositionNaut miles runAvg speedWind from/ knotsBaromVisibWave heightAir tempDewpointWater temp
2014-Oct-30 22:32N 33°27' W 118°30'2 1.9
2014-Oct-30 21:33N 33°28' W 118°27'1 0.8
2014-Oct-30 20:33N 33°28' W 118°27'3 2.9
2014-Oct-30 19:33N 33°30' W 118°28'1 1.1
2014-Oct-30 18:33N 33°31' W 118°27'8 8.5
2014-Oct-30 17:33N 33°38' W 118°21'8 8.0
2014-Oct-30 16:33N 33°43' W 118°14'3 3.2
2014-Oct-30 15:33N 33°46' W 118°12'0 0.0
2014-Oct-30 14:33N 33°46' W 118°12'0 0.0
2014-Oct-30 13:33N 33°46' W 118°12'0 0.0
2014-Oct-30 12:33N 33°46' W 118°12'0 0.0
2014-Oct-30 11:33N 33°46' W 118°12'0 0.0
2014-Oct-30 10:33N 33°46' W 118°12'0 0.0
2014-Oct-30 09:33N 33°46' W 118°12'0 0.0
2014-Oct-30 08:33N 33°46' W 118°12'0 0.0
2014-Oct-30 07:33N 33°46' W 118°12'0 0.0
2014-Oct-30 06:33N 33°46' W 118°12'0 0.0
2014-Oct-30 05:33N 33°46' W 118°12'0 0.0
2014-Oct-30 04:33N 33°46' W 118°12'0 0.0
2014-Oct-30 03:33N 33°46' W 118°12'0 0.1
2014-Oct-30 02:33N 33°46' W 118°12'0 0.1
2014-Oct-30 01:33N 33°46' W 118°12'0 0.0
2014-Oct-30 00:33N 33°46' W 118°12'0 0.0
2014-Oct-29 23:33N 33°46' W 118°12'0 0.0
2014-Oct-29 22:33N 33°46' W 118°12'0 0.0
2014-Oct-29 21:33N 33°46' W 118°12'1 1.1
2014-Oct-29 20:33N 33°45' W 118°11'6 5.5
2014-Oct-29 19:33N 33°39' W 118°12'8 7.7
2014-Oct-29 18:33N 33°32' W 118°15'7 7.2
2014-Oct-29 17:33N 33°25' W 118°18'5 4.7
2014-Oct-29 16:31N 33°21' W 118°19'0 0.1
2014-Oct-29 15:28N 33°21' W 118°19'4 4.4
2014-Oct-29 14:29N 33°24' W 118°22'0 0.0
2014-Oct-29 13:33N 33°24' W 118°22'0 0.0
2014-Oct-29 12:27N 33°24' W 118°22'0 0.0
2014-Oct-29 11:33N 33°24' W 118°22'0 0.0
2014-Oct-29 10:33N 33°24' W 118°22'0 0.0
2014-Oct-29 09:27N 33°24' W 118°22'0 0.0
2014-Oct-29 08:27N 33°24' W 118°22'0 0.0
2014-Oct-29 07:33N 33°24' W 118°22'0 0.0
2014-Oct-29 06:33N 33°24' W 118°22'0 0.0
2014-Oct-29 05:33N 33°24' W 118°22'0 0.0
2014-Oct-29 04:27N 33°24' W 118°22'3 0.6
2014-Oct-28 23:33N 33°27' W 118°22'5 4.6
2014-Oct-28 22:32N 33°32' W 118°24'14 0.5
2014-Oct-27 17:06N 33°43' W 118°13'3 5.2
2014-Oct-27 16:33N 33°45' W 118°11'0 0.3
2014-Oct-27 15:33N 33°46' W 118°12'0 0.0
2014-Oct-27 14:33N 33°46' W 118°12'0 0.0
2014-Oct-27 13:33N 33°46' W 118°12'0 0.0
2014-Oct-27 12:33N 33°46' W 118°12'0 0.0
2014-Oct-27 11:33N 33°46' W 118°12'0 0.0
2014-Oct-27 10:33N 33°46' W 118°12'0 0.0
2014-Oct-27 09:33N 33°46' W 118°12'0 0.0
2014-Oct-27 08:33N 33°46' W 118°12'0 0.0
2014-Oct-27 07:33N 33°46' W 118°12'0 0.0
2014-Oct-27 06:30N 33°46' W 118°12'0 0.0
2014-Oct-27 05:33N 33°46' W 118°12'0 0.0
2014-Oct-27 04:33N 33°46' W 118°12'0 0.0
2014-Oct-27 03:33N 33°46' W 118°12'0 0.0
2014-Oct-27 02:33N 33°46' W 118°12'0 0.0
2014-Oct-27 01:33N 33°46' W 118°12'0 0.0
2014-Oct-27 00:33N 33°46' W 118°12'0 0.0
2014-Oct-26 23:30N 33°46' W 118°12'0 0.0
2014-Oct-26 22:33N 33°46' W 118°12'0 0.0
2014-Oct-26 21:33N 33°46' W 118°12'0 0.0
2014-Oct-26 20:33N 33°46' W 118°12'0 0.0
2014-Oct-26 19:33N 33°46' W 118°12'0 0.0
2014-Oct-26 18:33N 33°46' W 118°12'0 0.0
2014-Oct-26 17:33N 33°46' W 118°12'0 0.0
2014-Oct-26 16:33N 33°46' W 118°12'0 0.0
2014-Oct-26 15:30N 33°46' W 118°12'0 0.0
2014-Oct-26 14:33N 33°46' W 118°12'0 0.0
2014-Oct-26 13:33N 33°46' W 118°12'0 0.0
2014-Oct-26 12:33N 33°46' W 118°12'0 0.0
2014-Oct-26 11:33N 33°46' W 118°12'0 0.0
2014-Oct-26 10:33N 33°46' W 118°12'0 0.0
2014-Oct-26 09:33N 33°46' W 118°12'0 0.0
2014-Oct-26 08:33N 33°46' W 118°12'0 0.0
2014-Oct-26 07:30N 33°46' W 118°12'0 0.0
2014-Oct-26 06:33N 33°46' W 118°12'0 0.0
2014-Oct-26 05:32N 33°46' W 118°12'0 0.0
2014-Oct-26 04:29N 33°46' W 118°12'0 0.0
2014-Oct-26 03:32N 33°46' W 118°12'0 0.0
2014-Oct-26 02:32N 33°46' W 118°12'0 0.0
2014-Oct-26 01:32N 33°46' W 118°12'0 0.0
2014-Oct-26 00:32N 33°46' W 118°12'0 0.0
2014-Oct-25 23:32N 33°46' W 118°12'0 0.0
2014-Oct-25 22:32N 33°46' W 118°12'0 0.0
2014-Oct-25 21:32N 33°46' W 118°12'0 0.0
2014-Oct-25 20:32N 33°46' W 118°12'0 0.0
2014-Oct-25 19:32N 33°46' W 118°12'0 0.0
2014-Oct-25 18:32N 33°46' W 118°12'0 0.0
2014-Oct-25 17:32N 33°46' W 118°12'0 0.0
2014-Oct-25 16:32N 33°46' W 118°12'0 0.0
2014-Oct-25 15:32N 33°46' W 118°12'0 0.0
2014-Oct-25 14:32N 33°46' W 118°12'0 0.0
2014-Oct-25 13:32N 33°46' W 118°12'0 0.0
2014-Oct-25 12:32N 33°46' W 118°12'0 0.0
2014-Oct-25 11:32N 33°46' W 118°12'0 0.0
2014-Oct-25 10:32N 33°46' W 118°12'0 0.0
2014-Oct-25 09:32N 33°46' W 118°12'0 0.0
2014-Oct-25 08:32N 33°46' W 118°12'0 0.0
2014-Oct-25 07:32N 33°46' W 118°12'0 0.0
2014-Oct-25 06:32N 33°46' W 118°12'0 0.0
2014-Oct-25 05:32N 33°46' W 118°12'0 0.0
2014-Oct-25 04:32N 33°46' W 118°12'0 0.0
2014-Oct-25 03:32N 33°46' W 118°12'0 0.0
2014-Oct-25 02:32N 33°46' W 118°12'0 0.0
2014-Oct-25 01:32N 33°46' W 118°12'0 0.0
2014-Oct-25 00:32N 33°46' W 118°12'0 0.0
2014-Oct-24 23:32N 33°46' W 118°12'1 0.7
2014-Oct-24 22:31N 33°45' W 118°11'3 2.7
2014-Oct-24 21:33N 33°44' W 118°08'5 5.4
2014-Oct-24 20:33N 33°41' W 118°14'6 5.6
2014-Oct-24 19:33N 33°36' W 118°18'8 8.1
2014-Oct-24 18:33N 33°28' W 118°20'6 5.9
2014-Oct-24 17:33N 33°23' W 118°21'0 0.0
2014-Oct-24 16:33N 33°23' W 118°21'0 0.0
2014-Oct-24 15:33N 33°23' W 118°21'0 0.0
2014-Oct-24 14:33N 33°23' W 118°21'0 0.0
2014-Oct-24 13:33N 33°23' W 118°21'0 0.0
2014-Oct-24 12:33N 33°23' W 118°21'0 0.0
2014-Oct-24 11:33N 33°23' W 118°21'0 0.0
2014-Oct-24 10:33N 33°23' W 118°21'0 0.0
2014-Oct-24 09:30N 33°23' W 118°21'0 0.0
2014-Oct-24 08:33N 33°23' W 118°21'0 0.0
2014-Oct-24 07:33N 33°23' W 118°21'0 0.0
2014-Oct-24 06:33N 33°23' W 118°21'0 0.0
2014-Oct-24 05:33N 33°23' W 118°21'0 0.0
2014-Oct-24 04:33N 33°23' W 118°21'0 0.0
2014-Oct-24 03:30N 33°23' W 118°21'0 0.0
2014-Oct-24 02:33N 33°23' W 118°21'0 0.0
2014-Oct-24 01:33N 33°23' W 118°21'0 0.1
2014-Oct-24 00:33N 33°23' W 118°21'0 0.1
2014-Oct-23 23:33N 33°23' W 118°21'1 1.0
2014-Oct-23 22:33N 33°24' W 118°21'6 6.4
2014-Oct-23 21:33N 33°18' W 118°18'7 7.3
2014-Oct-23 20:34N 33°15' W 118°26'6 6.0
2014-Oct-23 19:33N 33°19' W 118°32'23 0.5
2014-Oct-21 23:14N 33°30' W 118°56'1 1.6
2014-Oct-21 22:30N 33°29' W 118°56'3 3.5
2014-Oct-21 21:33N 33°26' W 118°55'8 7.5
2014-Oct-21 20:31N 33°26' W 118°46'12 6.1
2014-Oct-21 18:31N 33°28' W 118°31'  
Track history (hours):
 
Tides and Currents Weather Stations Pressure Air Temp Water Temp Dewpoint Dewpoint Depression Visibility Wind Speed Wind Dir Waves Ship Positions

Tole Mour (United States)

The largest working tall ship on the west coast of North America. Former callsign WUV7222.

Ship's website: http://www.tolemour.org/

Owner: Guided Discoveries/SSV Tole Mour, Claremont, CA. More information available from US FCC via Universal Licensing System and Coast Guard Vessel Documentation Center.

Last reported at 2014-Oct-30 22:32 UTC. Time now 2014-Nov-01 02:04 UTC.
Position N 33°27' W 118°30'.

Type: Ship. MMSI: 366822140.

Date/timePositionNaut miles runAvg speedWind from/ knotsBaromVisibWave heightAir tempDewpointWater temp
2014-Oct-30 22:32N 33°27' W 118°30'2 1.9
2014-Oct-30 21:33N 33°28' W 118°27'1 0.8
2014-Oct-30 20:33N 33°28' W 118°27'3 2.9
2014-Oct-30 19:33N 33°30' W 118°28'1 1.1
2014-Oct-30 18:33N 33°31' W 118°27'8 8.5
2014-Oct-30 17:33N 33°38' W 118°21'8 8.0
2014-Oct-30 16:33N 33°43' W 118°14'3 3.2
2014-Oct-30 15:33N 33°46' W 118°12'0 0.0
2014-Oct-30 14:33N 33°46' W 118°12'0 0.0
2014-Oct-30 13:33N 33°46' W 118°12'0 0.0
2014-Oct-30 12:33N 33°46' W 118°12'0 0.0
2014-Oct-30 11:33N 33°46' W 118°12'0 0.0
2014-Oct-30 10:33N 33°46' W 118°12'0 0.0
2014-Oct-30 09:33N 33°46' W 118°12'0 0.0
2014-Oct-30 08:33N 33°46' W 118°12'0 0.0
2014-Oct-30 07:33N 33°46' W 118°12'0 0.0
2014-Oct-30 06:33N 33°46' W 118°12'0 0.0
2014-Oct-30 05:33N 33°46' W 118°12'0 0.0
2014-Oct-30 04:33N 33°46' W 118°12'0 0.0
2014-Oct-30 03:33N 33°46' W 118°12'0 0.1
2014-Oct-30 02:33N 33°46' W 118°12'0 0.1
2014-Oct-30 01:33N 33°46' W 118°12'0 0.0
2014-Oct-30 00:33N 33°46' W 118°12'0 0.0
2014-Oct-29 23:33N 33°46' W 118°12'0 0.0
2014-Oct-29 22:33N 33°46' W 118°12'0 0.0
2014-Oct-29 21:33N 33°46' W 118°12'1 1.1
2014-Oct-29 20:33N 33°45' W 118°11'6 5.5
2014-Oct-29 19:33N 33°39' W 118°12'8 7.7
2014-Oct-29 18:33N 33°32' W 118°15'7 7.2
2014-Oct-29 17:33N 33°25' W 118°18'5 4.7
2014-Oct-29 16:31N 33°21' W 118°19'0 0.1
2014-Oct-29 15:28N 33°21' W 118°19'4 4.4
2014-Oct-29 14:29N 33°24' W 118°22'0 0.0
2014-Oct-29 13:33N 33°24' W 118°22'0 0.0
2014-Oct-29 12:27N 33°24' W 118°22'0 0.0
2014-Oct-29 11:33N 33°24' W 118°22'0 0.0
2014-Oct-29 10:33N 33°24' W 118°22'0 0.0
2014-Oct-29 09:27N 33°24' W 118°22'0 0.0
2014-Oct-29 08:27N 33°24' W 118°22'0 0.0
2014-Oct-29 07:33N 33°24' W 118°22'0 0.0
2014-Oct-29 06:33N 33°24' W 118°22'0 0.0
2014-Oct-29 05:33N 33°24' W 118°22'0 0.0
2014-Oct-29 04:27N 33°24' W 118°22'3 0.6
2014-Oct-28 23:33N 33°27' W 118°22'5 4.6
2014-Oct-28 22:32N 33°32' W 118°24'14 0.5
2014-Oct-27 17:06N 33°43' W 118°13'3 5.2
2014-Oct-27 16:33N 33°45' W 118°11'0 0.3
2014-Oct-27 15:33N 33°46' W 118°12'0 0.0
2014-Oct-27 14:33N 33°46' W 118°12'0 0.0
2014-Oct-27 13:33N 33°46' W 118°12'0 0.0
2014-Oct-27 12:33N 33°46' W 118°12'0 0.0
2014-Oct-27 11:33N 33°46' W 118°12'0 0.0
2014-Oct-27 10:33N 33°46' W 118°12'0 0.0
2014-Oct-27 09:33N 33°46' W 118°12'0 0.0
2014-Oct-27 08:33N 33°46' W 118°12'0 0.0
2014-Oct-27 07:33N 33°46' W 118°12'0 0.0
2014-Oct-27 06:30N 33°46' W 118°12'0 0.0
2014-Oct-27 05:33N 33°46' W 118°12'0 0.0
2014-Oct-27 04:33N 33°46' W 118°12'0 0.0
2014-Oct-27 03:33N 33°46' W 118°12'0 0.0
2014-Oct-27 02:33N 33°46' W 118°12'0 0.0
2014-Oct-27 01:33N 33°46' W 118°12'0 0.0
2014-Oct-27 00:33N 33°46' W 118°12'0 0.0
2014-Oct-26 23:30N 33°46' W 118°12'0 0.0
2014-Oct-26 22:33N 33°46' W 118°12'0 0.0
2014-Oct-26 21:33N 33°46' W 118°12'0 0.0
2014-Oct-26 20:33N 33°46' W 118°12'0 0.0
2014-Oct-26 19:33N 33°46' W 118°12'0 0.0
2014-Oct-26 18:33N 33°46' W 118°12'0 0.0
2014-Oct-26 17:33N 33°46' W 118°12'0 0.0
2014-Oct-26 16:33N 33°46' W 118°12'0 0.0
2014-Oct-26 15:30N 33°46' W 118°12'0 0.0
2014-Oct-26 14:33N 33°46' W 118°12'0 0.0
2014-Oct-26 13:33N 33°46' W 118°12'0 0.0
2014-Oct-26 12:33N 33°46' W 118°12'0 0.0
2014-Oct-26 11:33N 33°46' W 118°12'0 0.0
2014-Oct-26 10:33N 33°46' W 118°12'0 0.0
2014-Oct-26 09:33N 33°46' W 118°12'0 0.0
2014-Oct-26 08:33N 33°46' W 118°12'0 0.0
2014-Oct-26 07:30N 33°46' W 118°12'0 0.0
2014-Oct-26 06:33N 33°46' W 118°12'0 0.0
2014-Oct-26 05:32N 33°46' W 118°12'0 0.0
2014-Oct-26 04:29N 33°46' W 118°12'0 0.0
2014-Oct-26 03:32N 33°46' W 118°12'0 0.0
2014-Oct-26 02:32N 33°46' W 118°12'0 0.0
2014-Oct-26 01:32N 33°46' W 118°12'0 0.0
2014-Oct-26 00:32N 33°46' W 118°12'0 0.0
2014-Oct-25 23:32N 33°46' W 118°12'0 0.0
2014-Oct-25 22:32N 33°46' W 118°12'0 0.0
2014-Oct-25 21:32N 33°46' W 118°12'0 0.0
2014-Oct-25 20:32N 33°46' W 118°12'0 0.0
2014-Oct-25 19:32N 33°46' W 118°12'0 0.0
2014-Oct-25 18:32N 33°46' W 118°12'0 0.0
2014-Oct-25 17:32N 33°46' W 118°12'0 0.0
2014-Oct-25 16:32N 33°46' W 118°12'0 0.0
2014-Oct-25 15:32N 33°46' W 118°12'0 0.0
2014-Oct-25 14:32N 33°46' W 118°12'0 0.0
2014-Oct-25 13:32N 33°46' W 118°12'0 0.0
2014-Oct-25 12:32N 33°46' W 118°12'0 0.0
2014-Oct-25 11:32N 33°46' W 118°12'0 0.0
2014-Oct-25 10:32N 33°46' W 118°12'0 0.0
2014-Oct-25 09:32N 33°46' W 118°12'0 0.0
2014-Oct-25 08:32N 33°46' W 118°12'0 0.0
2014-Oct-25 07:32N 33°46' W 118°12'0 0.0
2014-Oct-25 06:32N 33°46' W 118°12'0 0.0
2014-Oct-25 05:32N 33°46' W 118°12'0 0.0
2014-Oct-25 04:32N 33°46' W 118°12'0 0.0
2014-Oct-25 03:32N 33°46' W 118°12'0 0.0
2014-Oct-25 02:32N 33°46' W 118°12'0 0.0
2014-Oct-25 01:32N 33°46' W 118°12'0 0.0
2014-Oct-25 00:32N 33°46' W 118°12'0 0.0
2014-Oct-24 23:32N 33°46' W 118°12'1 0.7
2014-Oct-24 22:31N 33°45' W 118°11'3 2.7
2014-Oct-24 21:33N 33°44' W 118°08'5 5.4
2014-Oct-24 20:33N 33°41' W 118°14'6 5.6
2014-Oct-24 19:33N 33°36' W 118°18'8 8.1
2014-Oct-24 18:33N 33°28' W 118°20'6 5.9
2014-Oct-24 17:33N 33°23' W 118°21'0 0.0
2014-Oct-24 16:33N 33°23' W 118°21'0 0.0
2014-Oct-24 15:33N 33°23' W 118°21'0 0.0
2014-Oct-24 14:33N 33°23' W 118°21'0 0.0
2014-Oct-24 13:33N 33°23' W 118°21'0 0.0
2014-Oct-24 12:33N 33°23' W 118°21'0 0.0
2014-Oct-24 11:33N 33°23' W 118°21'0 0.0
2014-Oct-24 10:33N 33°23' W 118°21'0 0.0
2014-Oct-24 09:30N 33°23' W 118°21'0 0.0
2014-Oct-24 08:33N 33°23' W 118°21'0 0.0
2014-Oct-24 07:33N 33°23' W 118°21'0 0.0
2014-Oct-24 06:33N 33°23' W 118°21'0 0.0
2014-Oct-24 05:33N 33°23' W 118°21'0 0.0
2014-Oct-24 04:33N 33°23' W 118°21'0 0.0
2014-Oct-24 03:30N 33°23' W 118°21'0 0.0
2014-Oct-24 02:33N 33°23' W 118°21'0 0.0
2014-Oct-24 01:33N 33°23' W 118°21'0 0.1
2014-Oct-24 00:33N 33°23' W 118°21'0 0.1
2014-Oct-23 23:33N 33°23' W 118°21'1 1.0
2014-Oct-23 22:33N 33°24' W 118°21'6 6.4
2014-Oct-23 21:33N 33°18' W 118°18'7 7.3
2014-Oct-23 20:34N 33°15' W 118°26'6 6.0
2014-Oct-23 19:33N 33°19' W 118°32'23 0.5
2014-Oct-21 23:14N 33°30' W 118°56'1 1.6
2014-Oct-21 22:30N 33°29' W 118°56'3 3.5
2014-Oct-21 21:33N 33°26' W 118°55'8 7.5
2014-Oct-21 20:31N 33°26' W 118°46'12 6.1
2014-Oct-21 18:31N 33°28' W 118°31'  

Dump ship's entire track history